Fairview, WY (83119)

8:39 AM MDT on October 25, 2014 (GMT -0600)
KWYAFTON2 | Change Station
CLOSE
Current Station
Personal Weather Station
Location: Afton, WY
Elevation: 6312 ft
Nearby Weather Stations

Elev 6312 ft 42.67 °N, 110.94 °W | Updated 4 minutes ago

Clear
Clear
33.3 °F
Feels Like 33 °F
N
0.0
Wind Variable Wind from NE

Today
High -- | Low -- °F
--% Chance of Precip.
Yesterday
High -- | Low -- °F
Precip. -- in
7:49 AM 6:26 PM
Waxing Crescent, 3% visible
Pressure 30.18 in
Visibility 10.0 miles
Clouds Clear
Windchill 33 °F
Dew Point 19 °F
Humidity 55%
Rainfall 0.00 in
Snow Depth 0 in , 1 in , 0 in
UV 0 out of 12
Pollen 3.20 out of 12
Air Quality Not available.
Flu Activity Sporadic
METAR KAFO 251415Z AUTO 00000KT 10SM CLR M02/M04 A3018 RMK AO2

More Conditions Fewer Conditions

Pressure 30.18 in
Visibility 10.0 miles
Clouds Clear
Windchill 33 °F
Dew Point 19 °F
Humidity 55%
Rainfall 0.00 in
Snow Depth 0 in , 1 in , 0 in
UV 0 out of 12
Pollen 3.20 out of 12
Air Quality Not available.
Flu Activity Sporadic
METAR KAFO 251415Z AUTO 00000KT 10SM CLR M02/M04 A3018 RMK AO2

More Conditions Fewer Conditions

10-Day Weather Forecast

Almanac

Astronomy

Oct. 25, 2014 Rise Set
Actual Time 7:49 AM MDT 6:26 PM MDT
Civil Twilight 7:20 AM MDT 6:55 PM MDT
Nautical Twilight 6:47 AM MDT 7:28 PM MDT
Astronomical Twilight 6:14 AM MDT 8:00 PM MDT
Moon 9:33 AM MDT 7:49 PM MDT
Length of Visible Light 11h 34m
Length of Day
10h 36m
Tomorrow will be 2m 39s shorter.
Waxing Crescent, 3% of the Moon is Illuminated
Today
Waxing Crescent
Oct 30
First Quarter
Nov 6
Full
Nov 14
Last Quarter
Nov 22
New

Today's Extremes

State Highs State Lows

Community

WunderPhotos

Upload Photos

1,764,852 photos uploaded!

Nearby

Snow Depth

Station Depth Elevation
Salt River Summit 0 in 7600 ft
Willow Creek 1 in 8450 ft
Spring Creek Divide 0 in 9000 ft
Blind Bull Summit 0 in 8900 ft
Snider Basin 0 in 8060 ft

Earthquake Activity

City Distance Mag. Time & Date
No recent earthquake activity has been reported nearby.
Minimum magnitude displayed is 2.5.

Coastal Water Temperatures

Place Temperature
No Stations Reporting

Nearby Weather Stations